Time;durP1;ratioP1;P1;durP2;ratioP2;P2;SDS_P1;SDS_P2;PMS_P1;PMS_P2;Temp;Humidity;BMP_temperature;BMP_pressure;BME280_temperature;BME280_humidity;BME280_pressure;Samples;Min_cycle;Max_cycle;Signal;HPM_P1;HPM_P2
2023/04/06 00:00:00;;;;;;;;;23.00;20.67;;;;;13.98;53.62;101038.09;4863496;29;42031;-83
2023/04/06 00:02:25;;;;;;;;;25.00;21.33;;;;;13.99;53.18;101043.41;4861170;29;43791;-83
2023/04/06 00:04:51;;;;;;;;;24.67;23.67;;;;;13.92;53.89;101030.94;4856387;29;44692;-83
2023/04/06 00:07:17;;;;;;;;;23.67;20.33;;;;;14.02;53.98;101042.56;4841240;29;43969;-83
2023/04/06 00:09:42;;;;;;;;;23.33;18.67;;;;;13.90;54.82;101035.38;4846170;29;44497;-83
2023/04/06 00:12:08;;;;;;;;;19.00;17.00;;;;;13.86;54.59;101024.66;4841503;29;44938;-82
2023/04/06 00:14:33;;;;;;;;;27.33;23.33;;;;;13.90;55.08;101026.47;4843353;29;43839;-83
2023/04/06 00:16:58;;;;;;;;;28.00;23.33;;;;;13.94;55.39;101030.94;4843309;29;44210;-82
2023/04/06 00:19:24;;;;;;;;;21.00;20.33;;;;;13.97;55.34;101030.94;4846143;29;40800;-83
2023/04/06 00:21:49;;;;;;;;;21.33;20.33;;;;;13.98;55.41;101030.06;4864046;29;42002;-83
2023/04/06 00:24:15;;;;;;;;;30.00;23.33;;;;;13.99;55.66;101032.72;4858932;29;44137;-83
2023/04/06 00:26:40;;;;;;;;;23.00;22.33;;;;;13.97;56.11;101025.59;4858770;29;42872;-83
2023/04/06 00:29:05;;;;;;;;;24.00;20.33;;;;;14.02;55.92;101023.84;4839270;29;44820;-83
2023/04/06 00:31:31;;;;;;;;;25.00;22.67;;;;;14.01;56.30;101024.72;4845171;29;42948;-83
2023/04/06 00:33:57;;;;;;;;;24.33;23.00;;;;;14.04;56.34;101014.03;4856043;29;44691;-83
2023/04/06 00:36:23;;;;;;;;;20.00;19.67;;;;;13.99;56.46;101015.78;4840715;29;44547;-83
2023/04/06 00:38:48;;;;;;;;;26.00;24.00;;;;;13.97;56.55;101006.88;4842944;29;43577;-83
2023/04/06 00:41:14;;;;;;;;;21.00;21.00;;;;;13.98;56.69;101003.31;4845665;29;39177;-83
2023/04/06 00:43:39;;;;;;;;;23.00;23.00;;;;;13.91;56.99;100994.38;4864501;29;41975;-83
2023/04/06 00:46:05;;;;;;;;;26.33;23.67;;;;;13.95;56.96;100997.94;4847598;29;44796;-83
2023/04/06 00:48:31;;;;;;;;;21.67;19.00;;;;;13.93;57.27;100991.72;4846349;29;44570;-83
2023/04/06 00:50:57;;;;;;;;;20.67;19.33;;;;;13.99;56.93;100997.06;4857220;29;44355;-83
2023/04/06 00:53:23;;;;;;;;;23.33;22.00;;;;;13.91;57.52;100991.69;4858821;29;45527;-83
2023/04/06 00:55:48;;;;;;;;;30.00;19.33;;;;;13.85;57.44;100985.44;4852789;29;44811;-82
2023/04/06 00:58:14;;;;;;;;;22.67;22.00;;;;;13.89;57.53;100988.13;4836525;29;45709;-83
2023/04/06 01:00:40;;;;;;;;;23.33;22.00;;;;;13.87;57.49;100983.66;4823400;29;43765;-83
2023/04/06 01:03:06;;;;;;;;;28.00;22.33;;;;;13.90;57.79;100991.72;4842775;29;43380;-83
2023/04/06 01:05:34;;;;;;;;;23.67;23.33;;;;;13.90;57.89;100989.91;4827359;29;43196;-82
2023/04/06 01:08:00;;;;;;;;;23.67;23.33;;;;;13.86;57.88;100992.59;4823625;29;43773;-83
2023/04/06 01:10:27;;;;;;;;;23.00;21.33;;;;;13.91;57.90;101001.50;4819655;29;43737;-83
2023/04/06 01:12:52;;;;;;;;;21.67;20.00;;;;;13.84;58.36;100992.56;4824941;29;45849;-83
2023/04/06 01:15:19;;;;;;;;;25.67;23.67;;;;;13.84;58.66;100986.34;4839103;29;45027;-83
2023/04/06 01:17:45;;;;;;;;;22.33;19.00;;;;;13.78;58.97;100980.06;4845013;29;44656;-83
2023/04/06 01:20:10;;;;;;;;;24.00;24.00;;;;;13.83;58.47;100984.53;4857977;29;44502;-83
2023/04/06 01:22:35;;;;;;;;;23.00;22.33;;;;;13.78;58.81;100980.06;4858470;29;44493;-83
2023/04/06 01:25:01;;;;;;;;;24.67;22.33;;;;;13.79;58.87;100978.28;4855027;29;44819;-83
2023/04/06 01:27:27;;;;;;;;;24.67;22.00;;;;;13.75;58.99;100974.69;4839366;29;44979;-82
2023/04/06 01:29:53;;;;;;;;;21.33;17.67;;;;;13.74;59.32;100974.69;4837975;29;43635;-83
2023/04/06 01:32:18;;;;;;;;;24.67;23.67;;;;;13.63;59.59;100961.25;4853896;29;45123;-82
2023/04/06 01:34:44;;;;;;;;;34.33;29.67;;;;;13.63;59.99;100963.06;4837255;29;43984;-83
2023/04/06 01:37:10;;;;;;;;;22.00;21.33;;;;;13.56;59.87;100956.78;4837110;29;44698;-82
2023/04/06 01:39:35;;;;;;;;;24.00;20.33;;;;;13.60;60.13;100959.47;4837565;29;44644;-83
2023/04/06 01:42:00;;;;;;;;;23.00;22.00;;;;;13.59;60.53;100948.78;4859184;29;44262;-83
2023/04/06 01:44:26;;;;;;;;;16.33;16.33;;;;;13.56;60.74;100951.44;4839338;29;44561;-84
2023/04/06 01:46:52;;;;;;;;;25.00;21.00;;;;;13.55;60.80;100960.31;4844846;29;43371;-82
2023/04/06 01:49:17;;;;;;;;;27.67;24.67;;;;;13.49;61.66;100965.63;4865666;29;35261;-82
2023/04/06 01:51:42;;;;;;;;;21.33;20.33;;;;;13.47;61.06;100962.06;4861457;29;44269;-82
2023/04/06 01:54:08;;;;;;;;;23.00;23.00;;;;;13.46;62.06;100966.53;4856116;29;44591;-83
2023/04/06 01:56:33;;;;;;;;;23.00;23.00;;;;;13.46;62.46;100961.19;4853235;29;44666;-83
2023/04/06 01:58:59;;;;;;;;;28.33;24.33;;;;;13.43;62.97;100965.59;4851387;29;44779;-83
2023/04/06 02:01:24;;;;;;;;;22.67;20.33;;;;;13.36;63.60;100952.22;4854001;29;44746;-83
2023/04/06 02:03:50;;;;;;;;;27.00;25.67;;;;;13.32;64.03;100950.41;4857219;29;44092;-83
2023/04/06 02:06:22;;;;;;;;;25.67;21.67;;;;;13.47;63.80;100946.03;4844202;29;41788;-82
2023/04/06 02:08:48;;;;;;;;;30.33;27.00;;;;;13.33;64.00;100940.59;4853083;29;44447;-82
2023/04/06 02:11:14;;;;;;;;;26.33;23.00;;;;;13.43;63.95;100936.22;4850945;29;45539;-82
2023/04/06 02:13:40;;;;;;;;;31.33;26.00;;;;;13.44;64.26;100938.91;4835599;29;45072;-83
2023/04/06 02:16:05;;;;;;;;;25.67;23.67;;;;;13.45;64.19;100932.66;4835059;29;44844;-83
2023/04/06 02:18:38;;;;;;;;;21.67;18.33;;;;;13.52;64.28;100936.28;4851524;29;45098;-83
2023/04/06 02:21:03;;;;;;;;;24.33;22.67;;;;;13.53;64.51;100936.28;4853161;29;45394;-83
2023/04/06 02:23:29;;;;;;;;;23.67;22.67;;;;;13.56;64.46;100932.75;4836690;29;45848;-83
2023/04/06 02:25:55;;;;;;;;;24.67;23.67;;;;;13.56;64.23;100919.38;4854376;29;45147;-83
2023/04/06 02:28:20;;;;;;;;;27.00;22.33;;;;;13.63;64.27;100920.28;4853497;29;44951;-83
2023/04/06 02:30:46;;;;;;;;;33.00;26.33;;;;;13.56;64.40;100908.69;4840586;29;46730;-83
2023/04/06 02:33:11;;;;;;;;;24.67;23.00;;;;;13.52;64.76;100897.09;4857075;29;44984;-83
2023/04/06 02:35:37;;;;;;;;;31.33;28.67;;;;;13.56;64.51;100895.31;4874205;29;44334;-83
2023/04/06 02:38:02;;;;;;;;;30.00;23.67;;;;;13.57;64.13;100906.03;4856170;29;45123;-83
2023/04/06 02:40:27;;;;;;;;;30.33;25.67;;;;;13.51;64.07;100908.69;4872417;29;45548;-83
2023/04/06 02:42:53;;;;;;;;;30.67;27.00;;;;;13.48;64.52;100910.44;4855000;29;45427;-84
2023/04/06 02:45:18;;;;;;;;;33.67;30.67;;;;;13.50;64.89;100917.56;4874391;29;45339;-84
2023/04/06 02:47:44;;;;;;;;;23.33;23.33;;;;;13.51;64.99;100913.09;4860343;29;44542;-84
2023/04/06 02:50:09;;;;;;;;;24.67;23.33;;;;;13.54;65.01;100910.47;4872523;29;45517;-84
2023/04/06 02:52:35;;;;;;;;;27.67;25.33;;;;;13.59;64.86;100914.94;4876678;29;44584;-84
2023/04/06 02:55:00;;;;;;;;;23.67;23.00;;;;;13.56;65.03;100914.91;4874936;29;45167;-83
2023/04/06 02:57:26;;;;;;;;;28.33;25.67;;;;;13.62;64.51;100919.41;4875334;29;44586;-83
2023/04/06 02:59:51;;;;;;;;;22.67;22.67;;;;;13.56;64.89;100912.25;4874449;29;44959;-84
2023/04/06 03:02:16;;;;;;;;;26.00;24.00;;;;;13.56;65.02;100930.06;4857897;29;44778;-83
2023/04/06 03:04:43;;;;;;;;;25.67;24.33;;;;;13.65;64.46;100931.88;4857564;29;44537;-83
2023/04/06 03:07:08;;;;;;;;;27.67;23.33;;;;;13.57;64.87;100927.41;4874189;29;44979;-83
2023/04/06 03:09:34;;;;;;;;;24.33;24.33;;;;;13.53;64.30;100916.69;4840853;29;46409;-82
2023/04/06 03:12:01;;;;;;;;;22.33;22.00;;;;;13.49;65.09;100915.78;4838875;29;45361;-83
2023/04/06 03:14:27;;;;;;;;;24.67;22.33;;;;;13.52;65.08;100913.13;4857097;29;44580;-82
2023/04/06 03:16:53;;;;;;;;;22.33;22.33;;;;;13.51;64.64;100926.47;4859634;29;44672;-84
2023/04/06 03:19:18;;;;;;;;;26.67;23.00;;;;;13.52;64.55;100922.91;4855025;29;44805;-84
2023/04/06 03:21:44;;;;;;;;;30.00;24.67;;;;;13.51;64.48;100921.13;4836185;29;45284;-83
2023/04/06 03:24:09;;;;;;;;;26.67;26.67;;;;;13.55;64.71;100909.56;4837453;29;45347;-83
2023/04/06 03:26:35;;;;;;;;;27.33;21.33;;;;;13.55;64.66;100907.81;4854129;29;44907;-83
2023/04/06 03:29:00;;;;;;;;;25.67;24.00;;;;;13.53;64.63;100901.56;4838450;29;47050;-84
2023/04/06 03:31:26;;;;;;;;;24.67;23.67;;;;;13.59;64.56;100903.34;4852434;29;44541;-84
2023/04/06 03:33:52;;;;;;;;;26.67;25.33;;;;;13.58;64.01;100902.47;4852452;29;45094;-83
2023/04/06 03:36:17;;;;;;;;;26.33;24.33;;;;;13.59;64.02;100903.34;4839676;29;43954;-83
2023/04/06 03:38:42;;;;;;;;;29.33;24.00;;;;;13.55;63.98;100896.19;4837703;29;46330;-83
2023/04/06 03:41:08;;;;;;;;;23.67;23.67;;;;;13.63;63.74;100899.78;4856591;29;44050;-84
2023/04/06 03:43:35;;;;;;;;;25.67;23.67;;;;;13.73;64.00;100893.59;4855253;29;44748;-84
2023/04/06 03:46:00;;;;;;;;;24.67;21.00;;;;;13.61;64.11;100901.56;4836321;29;45139;-83
2023/04/06 03:48:26;;;;;;;;;23.00;22.00;;;;;13.63;63.75;100899.78;4837023;29;47326;-83
2023/04/06 03:50:51;;;;;;;;;24.00;22.00;;;;;13.68;63.57;100907.84;4840181;29;45184;-84
2023/04/06 03:53:16;;;;;;;;;24.67;21.33;;;;;13.64;63.66;100890.03;4854758;29;45003;-84
2023/04/06 03:55:42;;;;;;;;;25.33;22.67;;;;;13.69;63.71;100898.94;4837906;29;43878;-84
2023/04/06 03:58:07;;;;;;;;;19.67;18.00;;;;;13.67;63.48;100893.56;4852853;29;44500;-83
2023/04/06 04:00:32;;;;;;;;;28.33;24.00;;;;;13.63;63.52;100883.75;4851327;29;45339;-83
2023/04/06 04:02:58;;;;;;;;;21.33;21.33;;;;;13.65;63.17;100892.69;4836599;29;44942;-83
2023/04/06 04:05:25;;;;;;;;;27.33;23.67;;;;;13.69;63.42;100894.47;4835892;29;44828;-84
2023/04/06 04:07:51;;;;;;;;;26.67;23.00;;;;;13.64;64.56;100873.97;4834619;29;47237;-84
2023/04/06 04:10:17;;;;;;;;;23.67;22.33;;;;;13.50;64.12;100873.94;4838115;29;44933;-84
2023/04/06 04:12:42;;;;;;;;;26.67;21.33;;;;;13.50;63.98;100881.94;4837378;29;45017;-83
2023/04/06 04:15:08;;;;;;;;;24.00;22.00;;;;;13.51;64.29;100889.06;4837489;29;45449;-84
2023/04/06 04:17:33;;;;;;;;;22.67;21.67;;;;;13.49;64.73;100891.75;4854079;29;45307;-84
2023/04/06 04:19:58;;;;;;;;;23.33;22.33;;;;;13.52;64.83;100890.84;4852282;29;45452;-84
2023/04/06 04:22:24;;;;;;;;;24.67;22.00;;;;;13.51;65.35;100895.31;4835777;29;44726;-83
2023/04/06 04:24:49;;;;;;;;;19.33;18.33;;;;;13.51;65.31;100884.63;4836895;29;44513;-83
2023/04/06 04:27:14;;;;;;;;;21.67;21.67;;;;;13.56;65.38;100898.88;4856453;29;45417;-83
2023/04/06 04:29:40;;;;;;;;;25.33;25.00;;;;;13.58;65.14;100893.56;4864900;29;45430;-83
2023/04/06 04:32:05;;;;;;;;;21.67;20.67;;;;;13.56;64.80;100877.50;4858039;29;44510;-83
2023/04/06 04:34:31;;;;;;;;;27.33;26.00;;;;;13.57;65.20;100883.75;4876878;29;44938;-83
2023/04/06 04:40:18;;;;;;;;;25.33;24.33;;;;;13.58;64.82;100897.09;4879623;29;44367;-82
2023/04/06 04:42:44;;;;;;;;;23.67;20.33;;;;;13.56;64.82;100892.66;4876951;29;45539;-83
2023/04/06 04:45:10;;;;;;;;;24.33;22.67;;;;;13.63;64.86;100907.81;4862752;29;44408;-82
2023/04/06 04:47:35;;;;;;;;;26.67;19.33;;;;;13.59;64.97;100898.91;4859961;29;43707;-83
2023/04/06 04:50:01;;;;;;;;;24.33;24.33;;;;;13.65;64.57;100914.06;4876514;29;44541;-83
2023/04/06 04:52:26;;;;;;;;;16.33;14.00;;;;;13.63;64.73;100913.16;4874763;29;44232;-84
2023/04/06 04:54:51;;;;;;;;;28.67;28.67;;;;;13.65;64.83;100913.16;4863944;29;40962;-83
2023/04/06 04:57:17;;;;;;;;;18.33;18.33;;;;;13.62;65.12;100914.06;4858276;29;44585;-84
2023/04/06 04:59:43;;;;;;;;;25.00;23.00;;;;;13.66;64.69;100917.66;4858820;29;44331;-83
2023/04/06 05:02:08;;;;;;;;;24.33;20.67;;;;;13.55;64.69;100914.91;4875556;29;45274;-84
2023/04/06 05:04:33;;;;;;;;;23.00;20.67;;;;;13.58;65.05;100928.28;4854279;29;44736;-84
2023/04/06 05:07:06;;;;;;;;;25.67;24.67;;;;;13.67;65.36;100914.94;4856817;29;47001;-83
2023/04/06 05:09:32;;;;;;;;;20.67;20.00;;;;;13.53;65.98;100916.69;4874426;29;44195;-83
2023/04/06 05:11:58;;;;;;;;;21.33;19.67;;;;;13.53;66.05;100911.34;4874274;29;44511;-83
2023/04/06 05:14:26;;;;;;;;;26.33;23.33;;;;;13.49;66.42;100920.22;4857090;29;44595;-83
2023/04/06 05:16:52;;;;;;;;;20.33;19.33;;;;;13.40;67.17;100916.63;4865171;29;44987;-84
2023/04/06 05:19:17;;;;;;;;;24.00;20.33;;;;;13.44;67.41;100919.31;4878714;29;43943;-84
2023/04/06 05:21:43;;;;;;;;;20.33;20.33;;;;;13.40;67.75;100907.72;4861381;29;42726;-84
2023/04/06 05:24:08;;;;;;;;;17.33;17.00;;;;;13.47;68.46;100938.03;4857162;29;43278;-84
2023/04/06 05:26:34;;;;;;;;;19.33;17.00;;;;;13.48;69.58;100930.03;4876806;29;43748;-84
2023/04/06 05:28:59;;;;;;;;;23.00;21.67;;;;;13.45;69.82;100926.44;4878270;29;40860;-83
2023/04/06 05:31:25;;;;;;;;;23.67;22.67;;;;;13.39;69.56;100922.88;4859699;29;44328;-84
2023/04/06 05:37:12;;;;;;;;;23.33;20.33;;;;;13.14;71.58;100915.53;4878927;29;43481;-84
2023/04/06 05:39:37;;;;;;;;;27.33;26.67;;;;;13.18;72.23;100918.22;4879780;29;44236;-83
2023/04/06 05:42:06;;;;;;;;;20.67;18.00;;;;;13.32;73.69;100922.81;4876588;29;44419;-83
2023/04/06 05:44:31;;;;;;;;;21.33;20.67;;;;;13.19;73.32;100924.50;4864908;29;45152;-83
2023/04/06 05:46:57;;;;;;;;;20.67;19.33;;;;;13.24;73.06;100930.75;4881423;29;44508;-83
2023/04/06 05:49:22;;;;;;;;;27.33;24.00;;;;;13.21;73.72;100915.59;4876701;29;45720;-83
2023/04/06 05:51:48;;;;;;;;;20.67;20.67;;;;;13.24;75.38;100930.75;4857857;29;46003;-83
2023/04/06 05:54:13;;;;;;;;;26.00;26.00;;;;;13.21;77.34;100922.72;4858507;29;44105;-83
2023/04/06 05:56:38;;;;;;;;;26.33;21.67;;;;;13.18;79.05;100922.69;4879632;29;44612;-83
2023/04/06 05:59:04;;;;;;;;;25.67;25.67;;;;;13.11;80.21;100915.50;4886870;29;44333;-83
2023/04/06 06:01:30;;;;;;;;;26.67;25.33;;;;;13.05;81.64;100908.38;4884698;29;45177;-83
2023/04/06 06:03:55;;;;;;;;;25.67;25.67;;;;;12.96;83.79;100906.53;4881409;29;44556;-84
2023/04/06 06:06:20;;;;;;;;;23.00;23.00;;;;;12.90;85.08;100917.16;4863331;29;44248;-83
2023/04/06 06:08:46;;;;;;;;;34.00;29.00;;;;;12.83;87.35;100906.44;4863377;29;45421;-83
2023/04/06 06:11:11;;;;;;;;;25.67;23.33;;;;;12.76;89.40;100908.16;4862897;29;44874;-83
2023/04/06 06:13:36;;;;;;;;;30.67;28.00;;;;;12.70;90.37;100905.44;4879261;29;44488;-83
2023/04/06 06:16:04;;;;;;;;;28.00;27.33;;;;;12.64;91.20;100911.59;4877394;29;45420;-83
2023/04/06 06:18:30;;;;;;;;;27.67;24.33;;;;;12.59;92.67;100911.59;4861626;29;44607;-82
2023/04/06 06:20:56;;;;;;;;;27.00;25.33;;;;;12.55;93.67;100915.09;4862380;29;45194;-83
2023/04/06 06:23:21;;;;;;;;;29.33;26.00;;;;;12.54;93.41;100901.75;4880735;29;44463;-84
2023/04/06 06:25:46;;;;;;;;;31.33;26.67;;;;;12.59;93.37;100913.38;4879626;29;45773;-83
2023/04/06 06:28:12;;;;;;;;;28.33;26.67;;;;;12.59;93.52;100916.91;4862633;29;45349;-83
2023/04/06 06:30:37;;;;;;;;;32.67;30.33;;;;;12.57;92.86;100910.69;4879964;29;45532;-84
2023/04/06 06:33:03;;;;;;;;;28.00;26.33;;;;;12.59;93.58;100910.69;4862146;29;45518;-82
2023/04/06 06:35:28;;;;;;;;;29.33;28.33;;;;;12.64;92.84;100908.94;4862374;29;47762;-84
2023/04/06 06:37:54;;;;;;;;;33.00;29.67;;;;;12.71;95.70;100912.56;4879122;29;45410;-84
2023/04/06 06:40:23;;;;;;;;;30.00;26.33;;;;;12.74;97.02;100910.81;4860744;29;45234;-84
2023/04/06 06:42:49;;;;;;;;;27.33;22.67;;;;;12.69;97.61;100906.34;4864811;29;45324;-84
2023/04/06 06:45:14;;;;;;;;;29.33;28.67;;;;;12.68;97.74;100909.88;4864566;29;44701;-84
2023/04/06 06:47:41;;;;;;;;;26.67;26.67;;;;;12.59;95.93;100900.91;4880105;29;45325;-85
2023/04/06 06:50:06;;;;;;;;;29.00;27.00;;;;;12.64;97.50;100897.38;4881450;29;45432;-82
2023/04/06 06:52:32;;;;;;;;;24.33;24.00;;;;;12.63;96.23;100896.50;4879696;29;45006;-84
2023/04/06 06:54:57;;;;;;;;;24.33;24.00;;;;;12.73;96.06;100900.13;4862851;29;47078;-83
2023/04/06 06:57:23;;;;;;;;;32.33;24.67;;;;;12.74;96.09;100904.56;4861803;29;45410;-82
2023/04/06 06:59:48;;;;;;;;;24.00;23.67;;;;;12.77;95.60;100901.94;4863287;29;45255;-83
2023/04/06 07:02:14;;;;;;;;;24.00;22.67;;;;;12.77;96.33;100910.84;4879306;29;45006;-83
2023/04/06 07:04:39;;;;;;;;;24.00;22.33;;;;;12.81;94.43;100911.75;4861595;29;45599;-83
2023/04/06 07:10:28;;;;;;;;;24.00;22.33;;;;;13.12;90.63;100919.97;4875657;29;45357;-84
2023/04/06 07:12:53;;;;;;;;;24.67;24.67;;;;;13.14;90.98;100915.53;4877601;29;45317;-83
2023/04/06 07:15:19;;;;;;;;;27.00;21.67;;;;;13.25;89.67;100918.28;4871425;29;45042;-83
2023/04/06 07:17:45;;;;;;;;;28.00;27.33;;;;;13.32;90.08;100918.34;4861329;29;44741;-83
2023/04/06 07:20:17;;;;;;;;;25.67;23.00;;;;;13.47;89.33;100917.56;4840747;29;45441;-83
2023/04/06 07:22:48;;;;;;;;;27.33;22.67;;;;;13.62;88.77;100911.38;4854903;29;45080;-85
2023/04/06 07:25:13;;;;;;;;;27.00;27.00;;;;;13.67;88.91;100912.28;4839083;29;47804;-84
2023/04/06 07:27:39;;;;;;;;;26.00;24.00;;;;;13.71;88.27;100903.38;4844422;29;45185;-84
2023/04/06 07:30:05;;;;;;;;;25.33;22.33;;;;;13.77;89.21;100910.53;4840192;29;44978;-84
2023/04/06 07:32:31;;;;;;;;;34.00;31.00;;;;;13.73;90.23;100904.28;4838628;29;45464;-83
2023/04/06 07:34:56;;;;;;;;;31.67;28.00;;;;;13.79;90.45;100896.31;4839233;29;45422;-84
2023/04/06 07:37:23;;;;;;;;;29.00;26.33;;;;;13.90;90.83;100900.81;4856839;29;44917;-83
2023/04/06 07:40:06;;;;;;;;;12.33;7.67;;;;;14.20;90.69;100916.91;4857477;29;44720;-86
2023/04/06 07:42:32;;;;;;;;;18.33;17.33;;;;;14.21;91.46;100915.13;4819872;29;45247;-86
2023/04/06 07:45:04;;;;;;;;;32.00;28.67;;;;;14.44;91.50;100904.47;4845153;29;45992;-86
2023/04/06 07:47:29;;;;;;;;;25.00;25.00;;;;;14.42;92.54;100906.22;4839150;29;45290;-86
2023/04/06 07:49:58;;;;;;;;;29.33;26.00;;;;;14.40;95.07;100890.19;4838505;29;45375;-86
2023/04/06 07:52:23;;;;;;;;;30.00;28.67;;;;;14.36;94.67;100904.47;4855716;29;45498;-86
2023/04/06 07:54:49;;;;;;;;;26.00;25.33;;;;;14.40;96.65;100900.91;4842155;29;46901;-85
2023/04/06 07:57:15;;;;;;;;;28.67;27.00;;;;;14.32;95.99;100885.69;4844935;29;45377;-85
2023/04/06 07:59:41;;;;;;;;;29.00;22.00;;;;;14.36;94.59;100903.53;4847005;29;45345;-85
2023/04/06 08:02:06;;;;;;;;;33.33;28.00;;;;;14.45;93.84;100897.34;4837653;29;45544;-84
2023/04/06 08:04:38;;;;;;;;;31.00;28.33;;;;;14.53;93.53;100891.09;4839939;29;48430;-86
2023/04/06 08:07:23;;;;;;;;;27.00;21.67;;;;;14.45;93.74;100871.47;4841281;29;45615;-85
2023/04/06 08:09:55;;;;;;;;;33.67;29.33;;;;;14.44;95.19;100893.78;4840464;29;45643;-86
2023/04/06 08:12:21;;;;;;;;;25.00;24.33;;;;;14.41;95.34;100878.59;4855747;29;45941;-86
2023/04/06 08:14:50;;;;;;;;;27.00;26.67;;;;;14.39;95.30;100871.47;4823754;29;46871;-85
2023/04/06 08:17:30;;;;;;;;;25.00;22.67;;;;;14.82;94.39;100894.69;4822617;29;44892;-86
2023/04/06 08:19:55;;;;;;;;;34.67;30.67;;;;;15.06;92.05;100909.81;4862099;29;45533;-84
2023/04/06 08:22:37;;;;;;;;;32.67;30.33;;;;;15.26;92.09;100885.66;4860787;29;45263;-87
2023/04/06 08:25:03;;;;;;;;;24.00;19.33;;;;;15.28;91.83;100902.63;4857829;29;47039;-86
2023/04/06 08:27:37;;;;;;;;;26.67;26.67;;;;;15.30;92.88;100899.03;4858653;29;45261;-85
2023/04/06 08:30:06;;;;;;;;;32.67;29.33;;;;;15.31;92.93;100894.56;4868333;29;44962;-86
2023/04/06 08:32:32;;;;;;;;;29.00;27.00;;;;;15.37;92.34;100886.50;4857707;29;45183;-86
2023/04/06 08:35:14;;;;;;;;;31.00;31.00;;;;;15.48;92.32;100873.09;4859541;29;46801;-85
2023/04/06 08:37:51;;;;;;;;;33.00;26.33;;;;;15.71;90.50;100916.75;4860144;29;45185;-84
2023/04/06 08:40:30;;;;;;;;;35.00;31.00;;;;;15.70;88.72;100903.38;4860229;29;44873;-85
2023/04/06 08:44:15;;;;;;;;;33.00;30.67;;;;;15.71;88.70;100919.44;4877861;29;45306;-85
2023/04/06 08:50:13;;;;;;;;;31.67;31.67;;;;;15.36;89.58;100923.16;4801635;29;45378;-86
2023/04/06 08:52:49;;;;;;;;;35.00;29.67;;;;;15.13;89.48;100907.13;4787733;29;44830;-84
2023/04/06 08:55:41;;;;;;;;;37.67;35.67;;;;;15.12;90.27;100901.78;4801048;29;45383;-85
2023/04/06 08:58:22;;;;;;;;;31.33;30.00;;;;;15.08;91.96;100883.94;4786207;29;44969;-84
2023/04/06 09:07:38;;;;;;;;;28.67;28.00;;;;;15.22;91.44;100926.75;4799158;29;44810;-86
2023/04/06 09:10:26;;;;;;;;;33.00;31.00;;;;;15.25;92.90;100946.41;4769161;29;46498;-86
2023/04/06 09:13:06;;;;;;;;;24.67;24.00;;;;;15.12;93.98;100910.69;4774907;29;45501;-83
2023/04/06 09:15:34;;;;;;;;;25.67;24.00;;;;;15.14;94.54;100943.72;4784794;29;45435;-84
2023/04/06 09:18:27;;;;;;;;;31.33;26.00;;;;;15.18;94.81;100929.44;4856942;29;45284;-84
2023/04/06 09:24:54;;;;;;;;;22.33;22.33;;;;;15.45;95.94;100934.72;4879032;29;44814;-85
2023/04/06 09:27:37;;;;;;;;;27.67;26.00;;;;;15.56;95.18;100912.34;4848599;29;45426;-84
2023/04/06 09:34:03;;;;;;;;;23.33;20.67;;;;;15.97;94.01;100931.88;4857852;29;44828;-85
2023/04/06 09:44:08;;;;;;;;;18.00;18.00;;;;;16.23;96.02;100933.53;4690636;30;45698;-83
2023/04/06 09:47:12;;;;;;;;;;;;;;;;;;;;;
2023/04/06 09:50:09;;;;;;;;;18.33;16.67;;;;;15.96;94.68;100952.47;4728699;30;71899;-84
2023/04/06 09:52:50;;;;;;;;;16.00;16.00;;;;;15.60;95.02;100926.66;4716370;30;45413;-83
2023/04/06 09:55:43;;;;;;;;;16.33;16.33;;;;;15.37;96.69;100929.38;4719170;30;45421;-83
2023/04/06 10:01:55;;;;;;;;;24.67;22.00;;;;;15.24;99.77;100936.56;4729946;30;45412;-84
2023/04/06 10:08:32;;;;;;;;;27.67;22.33;;;;;15.46;98.79;100953.50;4731302;30;45264;-85
2023/04/06 10:11:17;;;;;;;;;26.00;23.67;;;;;15.48;99.85;100949.03;4712266;30;45376;-85
2023/04/06 10:13:49;;;;;;;;;31.33;29.33;;;;;15.38;100.00;100913.31;4722058;30;45916;-86
2023/04/06 10:16:41;;;;;;;;;22.00;20.33;;;;;15.49;99.77;100912.38;4755097;29;45423;-85
2023/04/06 10:19:32;;;;;;;;;23.33;20.00;;;;;15.71;99.41;100940.88;4775646;29;46823;-86
2023/04/06 10:22:11;;;;;;;;;23.33;22.00;;;;;15.43;100.00;100901.69;4781389;29;46524;-86
2023/04/06 10:25:01;;;;;;;;;;;;;;;;;;;;;
2023/04/06 10:28:16;;;;;;;;;;;;;;;;;;;;;
2023/04/06 10:31:57;;;;;;;;;;;;;;;;;;;;;
2023/04/06 10:34:23;;;;;;;;;14.67;12.33;;;;;15.77;99.26;100948.97;4723609;29;74119;-86
2023/04/06 10:37:24;;;;;;;;;19.00;17.00;;;;;15.93;98.63;100919.38;4713511;30;44882;-85
2023/04/06 10:41:06;;;;;;;;;15.33;11.67;;;;;16.16;99.79;100949.69;4767400;29;45101;-84
2023/04/06 10:44:36;;;;;;;;;;;;;;;;;;;;;
2023/04/06 10:47:04;;;;;;;;;14.67;13.33;;;;;16.51;98.56;100908.28;4731457;30;74408;-87
2023/04/06 10:50:23;;;;;;;;;22.00;17.00;;;;;17.07;94.62;100942.78;4716320;30;45491;-87
2023/04/06 10:53:18;;;;;;;;;17.67;13.67;;;;;17.05;92.89;100947.25;4767025;29;45902;-87
2023/04/06 10:56:28;;;;;;;;;12.33;11.33;;;;;16.95;92.49;100944.66;4733040;30;45426;-87
2023/04/06 10:59:00;;;;;;;;;12.00;11.00;;;;;16.78;93.71;100922.38;4695595;30;45897;-86
2023/04/06 11:01:34;;;;;;;;;11.33;10.67;;;;;16.93;92.70;100924.97;4711109;30;44869;-84
2023/04/06 11:04:23;;;;;;;;;12.33;12.33;;;;;17.18;92.06;100940.84;4720894;29;45496;-85
2023/04/06 11:07:37;;;;;;;;;15.33;12.67;;;;;17.18;91.70;100943.53;4749440;29;45765;-85
2023/04/06 11:09:51;;;;;;;;;10.00;9.67;;;;;17.32;91.19;100938.03;4758589;29;45555;-83
2023/04/06 11:12:30;;;;;;;;;12.00;12.00;;;;;17.25;91.22;100929.16;4750542;29;44895;-84
2023/04/06 11:15:07;;;;;;;;;11.00;11.00;;;;;17.29;90.67;100929.97;4750014;29;45487;-86
2023/04/06 11:17:40;;;;;;;;;10.00;10.00;;;;;17.08;91.08;100893.47;4754829;29;45753;-88
2023/04/06 11:20:10;;;;;;;;;7.67;7.67;;;;;17.17;89.70;100917.59;4754053;29;46959;-85
2023/04/06 11:22:39;;;;;;;;;13.67;12.00;;;;;17.06;89.72;100912.31;4754346;29;45807;-85
2023/04/06 11:25:14;;;;;;;;;11.00;8.67;;;;;17.20;89.60;100886.16;4751154;29;45311;-85
2023/04/06 11:28:05;;;;;;;;;9.00;9.00;;;;;17.70;89.18;100917.88;4751532;29;45366;-85
2023/04/06 11:30:32;;;;;;;;;8.33;8.33;;;;;17.84;88.58;100906.97;4752836;29;45631;-85
2023/04/06 11:33:03;;;;;;;;;9.67;9.33;;;;;17.91;88.28;100881.75;4812518;29;44843;-86
2023/04/06 11:35:32;;;;;;;;;6.67;6.00;;;;;18.12;85.34;100885.97;4863013;29;45505;-86
2023/04/06 11:37:58;;;;;;;;;7.00;6.00;;;;;18.09;84.07;100867.16;4860560;29;45570;-84
2023/04/06 11:41:08;;;;;;;;;3.67;3.67;;;;;18.49;82.64;100891.66;4862617;29;44872;-84
2023/04/06 11:43:33;;;;;;;;;7.33;6.00;;;;;18.19;82.14;100855.31;4879705;29;45480;-86
2023/04/06 11:46:08;;;;;;;;;5.00;5.00;;;;;18.46;81.06;100863.88;4861916;29;45505;-87
2023/04/06 11:49:32;;;;;;;;;7.33;7.33;;;;;18.76;80.73;100881.31;4860221;29;45434;-85
2023/04/06 12:00:12;;;;;;;;;4.00;3.00;;;;;19.21;76.13;100880.53;4875683;29;45325;-86
2023/04/06 12:06:38;;;;;;;;;5.33;4.67;;;;;19.14;73.49;100875.25;4766472;29;45403;-87
2023/04/06 12:09:42;;;;;;;;;7.00;5.00;;;;;19.06;74.99;100869.13;4799769;29;45474;-87
2023/04/06 12:12:13;;;;;;;;;4.67;4.67;;;;;18.85;74.08;100847.97;4789618;29;45897;-85
2023/04/06 12:14:42;;;;;;;;;4.33;4.33;;;;;18.87;75.62;100849.72;4769129;29;45432;-85
2023/04/06 12:17:31;;;;;;;;;5.00;5.00;;;;;18.71;74.00;100846.38;4783163;29;45876;-85
2023/04/06 12:20:20;;;;;;;;;1.67;1.67;;;;;18.65;74.40;100865.34;4766506;29;45552;-86
2023/04/06 12:22:46;;;;;;;;;2.33;1.33;;;;;18.32;75.20;100861.41;4762448;29;45421;-86
2023/04/06 12:25:14;;;;;;;;;4.00;4.00;;;;;18.33;76.08;100858.69;4755505;29;44881;-87
2023/04/06 12:27:41;;;;;;;;;3.00;2.67;;;;;18.09;75.04;100833.03;4757003;29;47802;-87